createdAt,value
2019-05-11T00:04:25.229Z,13.93
2019-05-11T00:09:32.730Z,10.23
2019-05-11T00:14:40.017Z,9.57
2019-05-11T00:19:47.106Z,9.57
2019-05-11T00:24:54.309Z,8.60
2019-05-11T00:30:01.590Z,8.90
2019-05-11T00:35:09.580Z,8.60
2019-05-11T00:40:16.847Z,9.03
2019-05-11T00:45:23.927Z,9.40
2019-05-11T00:50:39.288Z,9.40
2019-05-11T00:55:40.018Z,15.33
2019-05-11T01:00:47.102Z,31.50
2019-05-11T01:05:54.942Z,10.03
2019-05-11T01:11:02.900Z,12.83
2019-05-11T01:16:10.070Z,12.10
2019-05-11T01:21:18.947Z,14.03
2019-05-11T01:26:26.523Z,13.90
2019-05-11T01:31:34.428Z,13.33
2019-05-11T01:36:42.397Z,14.30
2019-05-11T01:41:49.710Z,14.43
2019-05-11T01:46:57.014Z,14.23
2019-05-11T01:52:04.570Z,15.50
2019-05-11T01:57:11.920Z,14.90
2019-05-11T02:02:20.822Z,13.67
2019-05-11T02:07:28.038Z,14.30
2019-05-11T02:12:35.213Z,13.43
2019-05-11T02:17:42.286Z,14.47
2019-05-11T02:22:50.172Z,14.20
2019-05-11T02:27:58.043Z,12.30
2019-05-11T02:33:05.160Z,12.93
2019-05-11T02:38:12.643Z,13.10
2019-05-11T02:43:19.859Z,12.57
2019-05-11T02:48:26.946Z,12.17
2019-05-11T02:53:35.162Z,12.33
2019-05-11T02:58:43.350Z,11.93
2019-05-11T03:03:50.911Z,13.23
2019-05-11T03:08:58.999Z,14.83
2019-05-11T03:14:06.211Z,13.90
2019-05-11T03:19:13.315Z,15.67
2019-05-11T03:24:23.998Z,16.73
2019-05-11T03:29:29.201Z,20.20
2019-05-11T03:34:36.377Z,16.20
2019-05-11T03:39:44.333Z,18.33
2019-05-11T03:44:51.598Z,18.97
2019-05-11T03:49:58.757Z,18.47
2019-05-11T03:55:06.362Z,18.17
2019-05-11T04:00:14.339Z,18.87
2019-05-11T04:05:21.546Z,18.70
2019-05-11T04:10:28.724Z,20.37
2019-05-11T04:15:35.813Z,19.50
2019-05-11T04:20:44.175Z,20.17
2019-05-11T04:25:51.350Z,19.40
2019-05-11T04:31:02.372Z,19.03
2019-05-11T04:36:10.184Z,15.97
2019-05-11T04:41:17.416Z,15.17
2019-05-11T04:46:24.629Z,16.67
2019-05-11T04:51:32.438Z,15.07
2019-05-11T04:56:40.365Z,27.27
2019-05-11T05:01:47.415Z,12.67
2019-05-11T05:06:59.864Z,11.17
2019-05-11T05:12:08.466Z,12.00
2019-05-11T05:17:12.313Z,8.20
2019-05-11T05:22:21.373Z,8.60
2019-05-11T05:27:28.519Z,8.03
2019-05-11T05:32:35.969Z,6.43
2019-05-11T05:37:43.230Z,9.73
2019-05-11T05:42:50.365Z,6.00
2019-05-11T05:47:57.851Z,4.80
2019-05-11T05:53:05.505Z,6.73
2019-05-11T05:58:12.741Z,7.93
2019-05-11T06:03:20.170Z,6.93
2019-05-11T06:08:27.488Z,6.50
2019-05-11T06:13:45.364Z,5.50
2019-05-11T06:18:43.813Z,6.83
2019-05-11T06:23:51.016Z,5.37
2019-05-11T06:28:58.193Z,5.73
2019-05-11T06:34:05.336Z,4.83
2019-05-11T06:39:13.425Z,4.53
2019-05-11T06:44:20.597Z,4.37
2019-05-11T06:49:28.292Z,4.43
2019-05-11T06:54:36.070Z,3.93
2019-05-11T06:59:43.992Z,4.20
2019-05-11T07:04:51.200Z,5.40
2019-05-11T07:09:59.825Z,3.50
2019-05-11T07:15:07.337Z,4.93
2019-05-11T07:20:15.760Z,3.60
2019-05-11T07:25:23.453Z,5.03
2019-05-11T07:30:31.535Z,9.70
2019-05-11T07:35:39.336Z,4.33
2019-05-11T07:40:47.680Z,2.67
2019-05-11T07:45:54.886Z,2.30
2019-05-11T07:51:02.480Z,2.00
2019-05-11T07:56:09.805Z,2.70
2019-05-11T08:01:19.122Z,2.90
2019-05-11T08:06:28.592Z,2.10
2019-05-11T08:11:35.223Z,4.03
2019-05-11T08:16:42.454Z,2.70
2019-05-11T08:21:50.229Z,7.00
2019-05-11T08:26:58.194Z,2.30
2019-05-11T08:32:08.052Z,2.87
2019-05-11T08:37:14.301Z,3.90
2019-05-11T08:42:21.406Z,3.80
2019-05-11T08:47:28.949Z,2.50
2019-05-11T08:52:38.423Z,3.30
2019-05-11T08:57:47.796Z,4.90
2019-05-11T09:02:55.068Z,5.47
2019-05-11T09:08:02.709Z,2.63
2019-05-11T09:13:10.092Z,2.50
2019-05-11T09:18:18.733Z,2.30
2019-05-11T09:23:34.560Z,2.43
2019-05-11T09:28:38.252Z,3.30
2019-05-11T09:33:45.054Z,2.53
2019-05-11T09:38:52.250Z,3.00
2019-05-11T09:43:59.656Z,2.50
2019-05-11T09:49:08.079Z,2.80
2019-05-11T09:54:18.116Z,2.10
2019-05-11T09:59:24.916Z,4.03
2019-05-11T10:04:32.227Z,4.03
2019-05-11T10:09:39.413Z,1.70
2019-05-11T10:14:48.598Z,1.90
2019-05-11T10:19:58.039Z,2.00
2019-05-11T10:25:06.079Z,2.10
2019-05-11T10:30:14.042Z,1.80
2019-05-11T10:35:21.115Z,3.40
2019-05-11T10:40:28.507Z,1.50
2019-05-11T10:45:37.922Z,6.33
2019-05-11T10:50:45.675Z,1.90
2019-05-11T10:55:52.985Z,2.00
2019-05-11T11:01:01.341Z,2.40
2019-05-11T11:06:08.601Z,2.50
2019-05-11T11:11:18.498Z,1.67
2019-05-11T11:16:36.744Z,1.70
2019-05-11T11:21:34.731Z,1.40
2019-05-11T11:26:42.205Z,2.17
2019-05-11T11:31:53.027Z,2.43
2019-05-11T11:37:00.444Z,1.60
2019-05-11T11:42:08.483Z,1.77
2019-05-11T11:47:20.971Z,1.80
2019-05-11T11:52:27.564Z,1.80
2019-05-11T11:57:37.765Z,1.20
2019-05-11T12:02:45.185Z,3.90
2019-05-11T12:07:52.513Z,1.40
2019-05-11T12:12:59.790Z,1.80
2019-05-11T12:18:08.255Z,1.47
2019-05-11T12:23:17.818Z,1.77
2019-05-11T12:28:24.327Z,1.43
2019-05-11T12:33:31.510Z,2.07
2019-05-11T12:38:38.697Z,1.90
2019-05-11T12:43:46.174Z,2.43
2019-05-11T12:48:56.547Z,1.77
2019-05-11T12:54:02.678Z,1.80
2019-05-11T12:59:10.187Z,2.37
2019-05-11T13:04:18.139Z,1.80
2019-05-11T13:09:25.704Z,1.80
2019-05-11T13:14:33.137Z,5.23
2019-05-11T13:19:41.394Z,2.22
2019-05-11T13:24:48.698Z,1.90
2019-05-11T13:29:56.235Z,1.32
2019-05-11T13:35:03.836Z,2.10
2019-05-11T13:40:11.456Z,1.50
2019-05-11T13:45:18.972Z,1.60
2019-05-11T13:50:26.368Z,1.72
2019-05-11T13:55:34.532Z,2.15
2019-05-11T14:00:41.645Z,1.67
2019-05-11T14:05:48.937Z,1.62
2019-05-11T14:10:57.903Z,1.55
2019-05-11T14:16:05.237Z,1.70
2019-05-11T14:21:13.580Z,2.17
2019-05-11T14:26:20.828Z,2.62
2019-05-11T14:31:29.011Z,1.52
2019-05-11T14:36:38.520Z,1.25
2019-05-11T14:41:45.549Z,1.40
2019-05-11T14:46:52.746Z,2.30
2019-05-11T14:52:00.155Z,1.98
2019-05-11T14:57:08.056Z,1.98
2019-05-11T15:02:33.306Z,2.62
2019-05-11T15:07:41.610Z,1.17
2019-05-11T15:12:49.245Z,1.33
2019-05-11T15:17:58.164Z,1.70
2019-05-11T15:23:08.887Z,2.00
2019-05-11T15:28:18.165Z,1.50
2019-05-11T15:33:27.681Z,1.50
2019-05-11T15:38:34.745Z,1.80
2019-05-11T15:43:42.029Z,2.20
2019-05-11T15:48:59.430Z,1.55
2019-05-11T15:53:58.778Z,1.20
2019-05-11T15:59:08.615Z,1.65
2019-05-11T16:04:18.085Z,2.10
2019-05-11T16:09:24.882Z,2.40
2019-05-11T16:14:32.162Z,2.23
2019-05-11T16:19:41.121Z,1.70
2019-05-11T16:24:48.677Z,1.60
2019-05-11T16:29:57.042Z,1.72
2019-05-11T16:35:05.280Z,2.37
2019-05-11T16:40:13.774Z,1.97
2019-05-11T16:45:23.959Z,1.67
2019-05-11T16:50:31.904Z,1.70
2019-05-11T16:55:39.674Z,1.70
2019-05-11T17:00:49.034Z,1.50
2019-05-11T17:05:55.714Z,2.07
2019-05-11T17:11:02.988Z,1.97
2019-05-11T17:16:10.701Z,1.80
2019-05-11T17:21:18.453Z,2.30
2019-05-11T17:26:27.784Z,1.90
2019-05-11T17:31:34.397Z,2.20
2019-05-11T17:36:42.683Z,2.37
2019-05-11T17:41:50.270Z,1.80
2019-05-11T17:46:57.823Z,2.50
2019-05-11T17:52:07.996Z,2.77
2019-05-11T17:57:15.277Z,3.40
2019-05-11T18:02:22.462Z,4.70
2019-05-11T18:07:31.051Z,3.30
2019-05-11T18:12:39.172Z,3.80
2019-05-11T18:17:48.405Z,3.43
2019-05-11T18:22:58.074Z,2.90
2019-05-11T18:28:05.961Z,3.90
2019-05-11T18:33:13.018Z,5.90
2019-05-11T18:38:21.326Z,11.50
2019-05-11T18:43:28.722Z,8.53
2019-05-11T18:48:37.982Z,5.77
2019-05-11T18:53:45.039Z,4.43
2019-05-11T18:58:52.193Z,3.90
2019-05-11T19:04:00.130Z,4.10
2019-05-11T19:09:08.422Z,4.70
2019-05-11T19:14:16.904Z,4.50
2019-05-11T19:19:24.236Z,4.43
2019-05-11T19:24:32.264Z,4.43
2019-05-11T19:29:40.546Z,5.70
2019-05-11T19:34:47.895Z,4.70
2019-05-11T19:39:55.060Z,5.00
2019-05-11T19:45:02.469Z,4.10
2019-05-11T19:50:10.884Z,14.53
2019-05-11T19:55:18.599Z,6.70
2019-05-11T20:00:25.834Z,3.90
2019-05-11T20:05:34.142Z,4.10
2019-05-11T20:10:42.347Z,4.40
2019-05-11T20:15:49.666Z,4.87
2019-05-11T20:20:58.984Z,8.47
2019-05-11T20:26:06.024Z,12.53
2019-05-11T20:31:13.716Z,14.03
2019-05-11T20:36:20.828Z,12.23
2019-05-11T20:41:28.319Z,12.63
2019-05-11T20:46:35.400Z,9.50
2019-05-11T20:51:42.495Z,8.03
2019-05-11T20:56:49.619Z,5.73
2019-05-11T21:01:58.640Z,8.40
2019-05-11T21:07:08.505Z,7.63
2019-05-11T21:12:18.358Z,7.13
2019-05-11T21:17:24.622Z,7.93
2019-05-11T21:22:31.685Z,7.03
2019-05-11T21:27:39.303Z,7.07
2019-05-11T21:32:47.878Z,8.53
2019-05-11T21:37:55.355Z,13.50
2019-05-11T21:43:02.542Z,6.63
2019-05-11T21:48:09.657Z,9.67
2019-05-11T21:53:18.429Z,8.57
2019-05-11T21:58:28.423Z,5.87
2019-05-11T22:03:35.262Z,8.10
2019-05-11T22:08:42.418Z,6.40
2019-05-11T22:13:49.625Z,5.80
2019-05-11T22:18:58.039Z,5.57
2019-05-11T22:24:05.350Z,5.33
2019-05-11T22:29:12.865Z,6.80
2019-05-11T22:34:19.940Z,5.33
2019-05-11T22:39:27.130Z,5.17
2019-05-11T22:44:35.910Z,5.10
2019-05-11T22:49:43.145Z,4.67
2019-05-11T22:54:50.327Z,5.30
2019-05-11T22:59:59.079Z,5.30
2019-05-11T23:05:08.527Z,5.43
2019-05-11T23:10:17.737Z,5.40
2019-05-11T23:15:25.193Z,5.03
2019-05-11T23:20:33.546Z,7.17
2019-05-11T23:25:41.220Z,8.07
2019-05-11T23:30:48.388Z,5.73
2019-05-11T23:35:55.814Z,6.10
2019-05-11T23:41:03.211Z,6.87
2019-05-11T23:46:10.822Z,5.10
2019-05-11T23:51:18.268Z,4.87
2019-05-11T23:56:28.013Z,5.03
